Wind from 282 at 15 knots gusting 31

Air temperature 20.0° C
Dewpoint 6.3° C

Last reported at 2014-Apr-24 00:23 UTC.
Time now 2014-Apr-24 01:53 UTC

Location: N 34°01' W 119°22'.
View on Google Maps.

See reports from other nearby stations

Tides Stations Pressure Air Temp Water Temp Dewpoint Dewpoint depression Visibility Wind Speed Wind Dir Waves Ship positions

  
sailing weather and tide predictions

ANACAPA ISLAND CA US weather

date/time (UTC)wind fromknots sea level pressurealtimeterstation pressurevisibilityair tempwater tempwave heightnotes
2014-Apr-24 00:23 282 15 gusting 31 20.0
2014-Apr-23 23:23 293 21 gusting 35 17.8
2014-Apr-23 22:23 289 25 gusting 39 16.7
2014-Apr-23 21:23 296 24 gusting 33 15.6
2014-Apr-23 20:23 283 15 gusting 26 15.6
2014-Apr-23 19:23 286 15 gusting 23 16.7
2014-Apr-23 18:23 286 13 gusting 22 15.0
2014-Apr-23 17:23 296 14 gusting 22 15.0
2014-Apr-23 16:23 302 17 gusting 26 14.4
2014-Apr-23 15:23 299 20 gusting 27 14.4
2014-Apr-23 14:23 282 16 gusting 29 14.4
2014-Apr-23 13:23 289 20 gusting 31 13.3
2014-Apr-23 12:23 295 24 gusting 31 13.3
2014-Apr-23 11:23 294 21 gusting 29 14.4
2014-Apr-23 10:23 288 19 gusting 31 14.4
2014-Apr-23 09:23 284 18 gusting 29 13.9
2014-Apr-23 08:23 292 19 gusting 30 15.0
2014-Apr-23 07:23 291 19 gusting 33 15.0
2014-Apr-23 06:23 295 24 gusting 39 15.0
2014-Apr-23 05:23 289 25 gusting 42 15.0
2014-Apr-23 04:23 297 34 gusting 45 14.4
2014-Apr-23 03:23 289 31 gusting 44 15.6
2014-Apr-23 02:23 270 19 gusting 39 15.0
2014-Apr-23 01:23 275 19 gusting 37 17.2
2014-Apr-23 00:23 275 17 gusting 32 17.2
2014-Apr-22 23:23 093 2 gusting 14 20.0
2014-Apr-22 22:23 303 12 gusting 22 16.7
2014-Apr-22 21:23 289 19 gusting 28 17.2
2014-Apr-22 20:23 292 13 gusting 33 16.1
2014-Apr-22 19:23 293 23 gusting 32 14.4
2014-Apr-22 18:23 299 23 gusting 38 15.0
2014-Apr-22 17:23 352 23 gusting 35 15.6
2014-Apr-22 16:23 289 19 gusting 32 13.9
2014-Apr-22 15:23 298 15 gusting 28 13.3
2014-Apr-22 14:23 269 6 gusting 23 13.3
2014-Apr-22 13:23 351 8 gusting 17 13.9
2014-Apr-22 12:23 276 2 gusting 7 14.4
2014-Apr-22 11:23 232 4 gusting 11 14.4
2014-Apr-22 10:23 124 6 gusting 12 13.3
2014-Apr-22 09:23 146 7 gusting 16 13.9
2014-Apr-22 08:23 143 8 gusting 14 13.9
2014-Apr-22 07:23 119 9 gusting 13 14.4
2014-Apr-22 06:23 028 7 gusting 9 15.0
2014-Apr-22 05:23 340 6 gusting 15 14.4
2014-Apr-22 04:23 320 13 gusting 17 13.9
2014-Apr-22 03:23 313 9 gusting 13 13.3
2014-Apr-22 02:23 306 6 gusting 16 14.4
2014-Apr-22 01:23 306 13 gusting 15 15.0